createdAt,value
2022-08-08T00:00:56.637Z,1.80
2022-08-08T00:02:32.749Z,2.10
2022-08-08T00:05:10.122Z,1.77
2022-08-08T00:07:50.662Z,1.73
2022-08-08T00:10:28.478Z,1.80
2022-08-08T00:13:11.508Z,2.00
2022-08-08T00:16:03.561Z,2.00
2022-08-08T00:18:41.434Z,1.77
2022-08-08T00:21:16.738Z,2.07
2022-08-08T00:23:51.334Z,1.87
2022-08-08T00:26:29.580Z,1.97
2022-08-08T00:29:07.983Z,2.17
2022-08-08T00:32:29.361Z,2.50
2022-08-08T00:35:20.370Z,2.43
2022-08-08T00:38:31.095Z,2.23
2022-08-08T00:42:09.093Z,2.47
2022-08-08T00:45:21.680Z,2.40
2022-08-08T01:01:38.134Z,4.47
2022-08-08T01:05:10.323Z,4.73
2022-08-08T01:08:33.837Z,3.33
2022-08-08T01:11:44.085Z,2.83
2022-08-08T01:14:57.349Z,2.20
2022-08-08T01:18:12.204Z,1.93
2022-08-08T01:22:07.547Z,2.30
2022-08-08T01:24:54.648Z,2.37
2022-08-08T01:28:00.220Z,2.33
2022-08-08T01:32:02.999Z,2.77
2022-08-08T01:34:44.432Z,2.50
2022-08-08T01:37:56.664Z,2.47
2022-08-08T01:40:50.335Z,2.50
2022-08-08T01:43:34.587Z,2.20
2022-08-08T01:46:24.975Z,2.43
2022-08-08T01:49:06.317Z,2.30
2022-08-08T01:52:52.654Z,2.30
2022-08-08T01:55:25.939Z,2.50
2022-08-08T01:58:12.461Z,2.70
2022-08-08T02:00:57.517Z,2.37
2022-08-08T02:03:54.596Z,2.43
2022-08-08T02:06:40.952Z,2.50
2022-08-08T02:10:02.362Z,2.30
2022-08-08T02:12:24.365Z,2.50
2022-08-08T02:15:00.901Z,2.60
2022-08-08T02:17:43.877Z,2.27
2022-08-08T02:21:02.363Z,2.30
2022-08-08T02:23:31.792Z,2.33
2022-08-08T02:26:11.022Z,3.00
2022-08-08T02:29:02.715Z,2.40
2022-08-08T02:32:00.984Z,2.60
2022-08-08T02:35:08.907Z,3.07
2022-08-08T02:38:15.327Z,2.43
2022-08-08T02:42:03.927Z,2.37
2022-08-08T02:45:00.954Z,2.30
2022-08-08T02:48:25.928Z,2.50
2022-08-08T02:51:46.610Z,2.80
2022-08-08T02:54:50.197Z,3.00
2022-08-08T02:58:37.775Z,2.67
2022-08-08T03:01:54.278Z,2.77
2022-08-08T03:05:11.167Z,2.70
2022-08-08T03:08:37.715Z,2.80
2022-08-08T03:12:16.334Z,2.63
2022-08-08T03:15:58.222Z,3.27
2022-08-08T03:18:04.752Z,3.03
2022-08-08T03:20:47.028Z,3.00
2022-08-08T03:23:30.262Z,3.13
2022-08-08T03:26:08.698Z,3.00
2022-08-08T03:28:45.293Z,3.10
2022-08-08T03:32:06.522Z,3.27
2022-08-08T03:34:29.707Z,3.30
2022-08-08T03:36:58.727Z,3.20
2022-08-08T03:39:29.173Z,3.03
2022-08-08T03:42:27.102Z,2.83
2022-08-08T03:44:52.128Z,3.00
2022-08-08T03:47:23.167Z,2.83
2022-08-08T03:50:00.689Z,3.03
2022-08-08T03:52:45.048Z,3.23
2022-08-08T03:55:55.229Z,3.40
2022-08-08T03:58:34.328Z,3.93
2022-08-08T04:01:24.016Z,3.50
2022-08-08T04:03:59.568Z,3.83
2022-08-08T04:06:36.675Z,3.47
2022-08-08T04:09:11.191Z,4.23
2022-08-08T04:11:53.712Z,3.73
2022-08-08T04:14:55.568Z,4.10
2022-08-08T04:17:46.661Z,4.00
2022-08-08T04:20:14.375Z,4.07
2022-08-08T04:22:43.429Z,4.53
2022-08-08T04:25:15.535Z,4.50
2022-08-08T04:28:02.418Z,4.80
2022-08-08T04:30:44.287Z,4.43
2022-08-08T04:33:15.759Z,5.10
2022-08-08T04:35:51.145Z,4.33
2022-08-08T04:38:22.248Z,4.23
2022-08-08T04:40:55.092Z,4.93
2022-08-08T04:43:31.539Z,4.50
2022-08-08T04:46:16.412Z,5.00
2022-08-08T04:49:03.584Z,4.67
2022-08-08T04:51:55.132Z,4.77
2022-08-08T04:54:39.391Z,5.17
2022-08-08T04:57:11.280Z,4.73
2022-08-08T04:59:42.710Z,5.37
2022-08-08T05:02:13.637Z,5.30
2022-08-08T05:04:44.825Z,4.67
2022-08-08T05:07:17.634Z,4.97
2022-08-08T05:09:46.340Z,4.60
2022-08-08T05:12:20.678Z,4.77
2022-08-08T05:15:06.265Z,4.80
2022-08-08T05:17:53.749Z,4.90
2022-08-08T05:20:25.839Z,4.80
2022-08-08T05:22:56.304Z,4.20
2022-08-08T05:25:41.495Z,4.13
2022-08-08T05:28:12.340Z,3.87
2022-08-08T05:30:47.364Z,3.73
2022-08-08T05:33:17.925Z,3.47
2022-08-08T05:35:54.242Z,3.80
2022-08-08T05:38:31.862Z,4.00
2022-08-08T05:41:12.027Z,3.63
2022-08-08T05:44:03.153Z,3.57
2022-08-08T05:46:36.851Z,3.23
2022-08-08T05:49:11.312Z,3.40
2022-08-08T05:51:48.855Z,3.33
2022-08-08T05:54:26.839Z,3.57
2022-08-08T05:56:58.518Z,3.30
2022-08-08T06:00:01.249Z,2.97
2022-08-08T06:02:48.720Z,3.20
2022-08-08T06:05:35.026Z,3.10
2022-08-08T06:08:33.449Z,3.00
2022-08-08T06:11:08.211Z,2.90
2022-08-08T06:13:47.466Z,2.40
2022-08-08T06:16:19.007Z,2.20
2022-08-08T06:19:13.321Z,2.40
2022-08-08T06:21:57.038Z,2.40
2022-08-08T06:24:36.429Z,2.40
2022-08-08T06:27:10.802Z,2.63
2022-08-08T06:30:01.108Z,2.30
2022-08-08T06:32:47.665Z,2.40
2022-08-08T06:36:06.670Z,1.90
2022-08-08T06:38:14.560Z,1.70
2022-08-08T06:40:53.558Z,1.90
2022-08-08T06:43:28.619Z,1.90
2022-08-08T06:46:09.221Z,2.23
2022-08-08T06:48:43.692Z,2.27
2022-08-08T06:51:17.381Z,2.10
2022-08-08T06:53:50.691Z,1.93
2022-08-08T06:56:27.069Z,1.70
2022-08-08T06:58:56.410Z,1.97
2022-08-08T07:02:27.185Z,1.73
2022-08-08T07:04:36.923Z,1.80
2022-08-08T07:07:18.886Z,1.73
2022-08-08T07:10:02.405Z,1.50
2022-08-08T07:12:43.035Z,2.28
2022-08-08T07:15:32.638Z,1.40
2022-08-08T07:18:37.147Z,1.45
2022-08-08T07:21:05.304Z,1.83
2022-08-08T07:24:03.639Z,1.75
2022-08-08T07:26:50.594Z,1.30
2022-08-08T07:30:00.063Z,1.23
2022-08-08T07:32:15.667Z,1.50
2022-08-08T07:35:00.825Z,1.50
2022-08-08T07:37:55.401Z,1.58
2022-08-08T07:40:40.090Z,1.08
2022-08-08T07:43:13.625Z,0.98
2022-08-08T07:46:05.442Z,0.90
2022-08-08T07:48:38.041Z,0.98
2022-08-08T07:51:08.914Z,1.10
2022-08-08T07:54:06.970Z,0.90
2022-08-08T07:56:55.451Z,0.90
2022-08-08T07:59:28.283Z,1.10
2022-08-08T08:02:35.199Z,0.90
2022-08-08T08:05:04.420Z,1.05
2022-08-08T08:07:46.196Z,1.20
2022-08-08T08:10:30.443Z,1.13
2022-08-08T08:13:25.623Z,2.00
2022-08-08T08:16:19.468Z,2.05
2022-08-08T08:18:56.041Z,0.80
2022-08-08T08:21:44.664Z,1.00
2022-08-08T08:24:35.281Z,0.63
2022-08-08T08:27:09.335Z,0.90
2022-08-08T08:29:44.020Z,1.02
2022-08-08T08:32:32.017Z,0.80
2022-08-08T08:35:11.362Z,0.82
2022-08-08T08:38:12.845Z,1.00
2022-08-08T08:40:35.194Z,0.77
2022-08-08T08:43:11.848Z,1.92
2022-08-08T08:45:57.507Z,0.90
2022-08-08T08:48:27.862Z,0.77
2022-08-08T08:51:02.459Z,1.30
2022-08-08T08:53:56.073Z,0.93
2022-08-08T08:56:29.851Z,0.90
2022-08-08T08:59:19.683Z,0.80
2022-08-08T09:01:59.974Z,0.70
2022-08-08T09:04:45.552Z,0.75
2022-08-08T09:07:39.203Z,0.95
2022-08-08T09:10:17.755Z,0.77
2022-08-08T09:12:50.688Z,1.13
2022-08-08T09:15:41.456Z,1.30
2022-08-08T09:18:13.059Z,1.05
2022-08-08T09:22:02.281Z,0.63
2022-08-08T09:23:38.275Z,0.82
2022-08-08T09:26:21.455Z,0.93
2022-08-08T09:28:51.973Z,1.00
2022-08-08T09:31:56.189Z,0.90
2022-08-08T09:34:35.124Z,1.20
2022-08-08T09:37:39.675Z,1.10
2022-08-08T09:40:42.713Z,0.90
2022-08-08T09:43:24.146Z,0.70
2022-08-08T09:46:16.899Z,1.30
2022-08-08T09:49:18.459Z,0.80
2022-08-08T09:52:06.023Z,0.70
2022-08-08T09:54:42.531Z,0.80
2022-08-08T09:57:17.496Z,0.80
2022-08-08T10:02:42.197Z,0.85
2022-08-08T10:05:25.188Z,0.82
2022-08-08T10:08:01.062Z,1.23
2022-08-08T10:10:32.933Z,1.15
2022-08-08T10:13:13.817Z,1.30
2022-08-08T10:16:01.081Z,1.00
2022-08-08T10:18:33.628Z,0.60
2022-08-08T10:21:22.885Z,0.70
2022-08-08T10:23:59.953Z,0.85
2022-08-08T10:26:57.692Z,0.50
2022-08-08T10:29:38.398Z,0.88
2022-08-08T10:32:37.302Z,0.68
2022-08-08T10:35:11.792Z,0.93
2022-08-08T10:37:55.611Z,0.73
2022-08-08T10:40:30.887Z,1.20
2022-08-08T10:43:03.581Z,0.93
2022-08-08T10:45:55.685Z,0.73
2022-08-08T10:48:57.477Z,1.35
2022-08-08T10:51:31.176Z,0.82
2022-08-08T10:54:03.693Z,0.70
2022-08-08T10:56:43.002Z,0.55
2022-08-08T10:59:14.535Z,0.80
2022-08-08T11:01:49.416Z,0.93
2022-08-08T11:04:29.488Z,0.70
2022-08-08T11:07:02.779Z,2.17
2022-08-08T11:09:32.281Z,0.60
2022-08-08T11:12:14.014Z,1.08
2022-08-08T11:14:53.757Z,0.60
2022-08-08T11:18:00.449Z,0.93
2022-08-08T11:20:17.818Z,0.90
2022-08-08T11:22:51.932Z,0.98
2022-08-08T11:25:53.220Z,0.70
2022-08-08T11:28:15.447Z,0.73
2022-08-08T11:30:52.887Z,1.30
2022-08-08T11:33:52.775Z,0.75
2022-08-08T11:36:15.328Z,0.82
2022-08-08T11:38:55.655Z,1.58
2022-08-08T11:41:27.935Z,0.82
2022-08-08T11:44:03.824Z,1.02
2022-08-08T11:46:35.285Z,1.05
2022-08-08T11:49:11.518Z,1.38
2022-08-08T11:51:50.770Z,1.60
2022-08-08T11:54:33.619Z,0.70
2022-08-08T11:57:27.434Z,0.80
2022-08-08T12:00:06.314Z,0.70
2022-08-08T12:02:51.110Z,0.75
2022-08-08T12:05:22.527Z,1.55
2022-08-08T12:07:56.734Z,0.88
2022-08-08T12:10:28.154Z,0.90
2022-08-08T12:13:05.488Z,0.85
2022-08-08T12:15:41.857Z,0.73
2022-08-08T12:18:18.107Z,0.80
2022-08-08T12:20:53.348Z,0.80
2022-08-08T12:23:43.376Z,0.98
2022-08-08T12:26:28.022Z,0.90
2022-08-08T12:29:21.850Z,0.80
2022-08-08T12:32:09.441Z,1.00
2022-08-08T12:34:43.439Z,1.05
2022-08-08T12:37:21.707Z,0.77
2022-08-08T12:40:02.019Z,1.15
2022-08-08T12:42:33.822Z,1.00
2022-08-08T12:46:00.135Z,0.82
2022-08-08T12:48:35.746Z,0.95
2022-08-08T12:50:57.595Z,1.08
2022-08-08T12:53:36.427Z,0.70
2022-08-08T12:56:19.314Z,1.00
2022-08-08T12:58:55.223Z,1.40
2022-08-08T13:01:37.028Z,1.80
2022-08-08T13:04:24.469Z,1.50
2022-08-08T13:07:00.773Z,1.50
2022-08-08T13:09:43.316Z,1.50
2022-08-08T13:12:29.278Z,1.80
2022-08-08T13:14:59.476Z,2.20
2022-08-08T13:17:54.322Z,1.35
2022-08-08T13:20:22.044Z,2.47
2022-08-08T13:22:55.953Z,1.95
2022-08-08T13:25:37.189Z,1.90
2022-08-08T13:28:06.456Z,1.90
2022-08-08T13:30:35.917Z,1.65
2022-08-08T13:33:05.856Z,1.50
2022-08-08T13:35:38.745Z,1.40
2022-08-08T13:38:13.435Z,1.95
2022-08-08T13:40:44.666Z,1.17
2022-08-08T13:43:16.073Z,1.20
2022-08-08T13:45:47.323Z,1.50
2022-08-08T13:48:25.053Z,1.52
2022-08-08T13:51:25.103Z,1.65
2022-08-08T13:53:53.291Z,1.90
2022-08-08T13:56:44.773Z,1.10
2022-08-08T13:59:33.579Z,1.10
2022-08-08T14:02:07.567Z,1.15
2022-08-08T14:04:52.807Z,1.08
2022-08-08T14:07:25.218Z,1.63
2022-08-08T14:10:10.253Z,1.10
2022-08-08T14:12:43.803Z,1.20
2022-08-08T14:15:31.171Z,1.10
2022-08-08T14:18:35.602Z,0.90
2022-08-08T14:21:04.060Z,0.90
2022-08-08T14:24:07.544Z,1.13
2022-08-08T14:26:38.495Z,1.50
2022-08-08T14:29:17.521Z,0.90
2022-08-08T14:32:10.821Z,1.52
2022-08-08T14:34:45.544Z,0.77
2022-08-08T14:37:19.174Z,0.80
2022-08-08T14:40:12.992Z,1.08
2022-08-08T14:42:55.177Z,1.20
2022-08-08T14:45:33.553Z,0.93
2022-08-08T14:48:27.568Z,1.42
2022-08-08T14:51:06.775Z,1.35
2022-08-08T14:53:56.336Z,1.50
2022-08-08T14:56:27.338Z,0.60
2022-08-08T14:58:58.505Z,0.70
2022-08-08T15:01:37.596Z,0.80
2022-08-08T15:04:13.107Z,0.98
2022-08-08T15:06:42.569Z,0.80
2022-08-08T15:09:14.142Z,0.70
2022-08-08T15:11:46.490Z,0.80
2022-08-08T15:14:25.230Z,0.80
2022-08-08T15:16:56.962Z,0.70
2022-08-08T15:19:27.844Z,1.60
2022-08-08T15:21:57.843Z,0.73
2022-08-08T15:24:31.555Z,1.00
2022-08-08T15:27:12.209Z,0.90
2022-08-08T15:29:51.558Z,0.80
2022-08-08T15:32:23.227Z,0.80
2022-08-08T15:34:54.357Z,0.70
2022-08-08T15:37:23.810Z,1.50
2022-08-08T15:39:54.755Z,1.13
2022-08-08T15:42:31.705Z,1.67
2022-08-08T15:45:01.522Z,1.00
2022-08-08T15:47:32.201Z,0.85
2022-08-08T15:50:01.647Z,0.73
2022-08-08T15:52:33.047Z,1.10
2022-08-08T15:55:02.163Z,0.80
2022-08-08T15:57:35.762Z,0.80
2022-08-08T16:00:27.256Z,1.00
2022-08-08T16:03:01.316Z,0.60
2022-08-08T16:05:35.250Z,0.63
2022-08-08T16:08:09.528Z,0.80
2022-08-08T16:13:08.745Z,1.90
2022-08-08T16:13:34.925Z,0.90
2022-08-08T16:16:17.986Z,1.38
2022-08-08T16:18:57.122Z,3.30
2022-08-08T16:21:31.748Z,0.70
2022-08-08T16:24:03.620Z,0.80
2022-08-08T16:26:36.370Z,1.50
2022-08-08T16:29:15.638Z,0.77
2022-08-08T16:31:49.024Z,1.10
2022-08-08T16:34:21.239Z,0.80
2022-08-08T16:36:51.816Z,0.88
2022-08-08T16:39:48.887Z,0.80
2022-08-08T16:42:17.992Z,0.80
2022-08-08T16:44:54.436Z,0.85
2022-08-08T16:47:40.746Z,0.63
2022-08-08T16:50:15.104Z,0.80
2022-08-08T16:54:59.911Z,1.50
2022-08-08T16:55:53.220Z,0.80
2022-08-08T16:58:27.039Z,2.03
2022-08-08T17:01:05.773Z,0.90
2022-08-08T17:03:59.463Z,0.90
2022-08-08T17:06:36.325Z,0.75
2022-08-08T17:09:15.557Z,0.95
2022-08-08T17:11:48.795Z,1.10
2022-08-08T17:14:27.093Z,0.90
2022-08-08T17:17:01.420Z,1.30
2022-08-08T17:19:31.955Z,2.05
2022-08-08T17:22:12.466Z,2.08
2022-08-08T17:24:54.022Z,1.10
2022-08-08T17:27:29.057Z,0.60
2022-08-08T17:30:27.332Z,1.30
2022-08-08T17:34:53.942Z,1.05
2022-08-08T17:35:53.220Z,1.02
2022-08-08T17:38:25.366Z,1.00
2022-08-08T17:41:02.299Z,1.10
2022-08-08T17:44:00.639Z,1.20
2022-08-08T17:46:36.926Z,2.00
2022-08-08T17:49:10.649Z,1.25
2022-08-08T17:51:39.912Z,1.38
2022-08-08T17:54:22.528Z,1.77
2022-08-08T17:56:56.697Z,1.90
2022-08-08T17:59:36.197Z,2.30
2022-08-08T18:02:18.576Z,1.67
2022-08-08T18:05:00.542Z,1.10
2022-08-08T18:08:02.573Z,1.00
2022-08-08T18:10:19.801Z,1.10
2022-08-08T18:13:02.393Z,1.20
2022-08-08T18:15:32.097Z,1.00
2022-08-08T18:18:09.031Z,1.35
2022-08-08T18:20:59.390Z,1.13
2022-08-08T18:23:29.142Z,1.15
2022-08-08T18:26:01.453Z,1.25
2022-08-08T18:28:34.900Z,1.70
2022-08-08T18:31:23.912Z,1.48
2022-08-08T18:34:18.789Z,2.65
2022-08-08T18:36:48.334Z,1.40
2022-08-08T18:39:28.254Z,1.30
2022-08-08T18:42:04.116Z,1.38
2022-08-08T18:44:36.351Z,1.20
2022-08-08T18:47:06.783Z,1.17
2022-08-08T18:49:57.895Z,1.60
2022-08-08T18:52:36.734Z,1.48
2022-08-08T18:55:10.638Z,1.45
2022-08-08T18:57:45.307Z,1.30
2022-08-08T19:00:20.591Z,1.40
2022-08-08T19:02:55.304Z,1.30
2022-08-08T19:05:34.222Z,1.33
2022-08-08T19:08:29.148Z,1.13
2022-08-08T19:11:04.000Z,1.00
2022-08-08T19:13:56.612Z,1.40
2022-08-08T19:16:31.895Z,1.30
2022-08-08T19:19:09.842Z,1.17
2022-08-08T19:21:48.426Z,1.95
2022-08-08T19:24:38.888Z,1.70
2022-08-08T19:27:18.212Z,2.05
2022-08-08T19:30:23.996Z,1.38
2022-08-08T19:33:00.655Z,2.20
2022-08-08T19:35:45.020Z,2.03
2022-08-08T19:38:22.079Z,3.25
2022-08-08T19:40:57.819Z,4.07
2022-08-08T19:43:32.286Z,3.10
2022-08-08T19:46:04.078Z,3.83
2022-08-08T19:48:38.627Z,2.35
2022-08-08T19:51:13.992Z,3.20
2022-08-08T19:53:53.308Z,2.97
2022-08-08T19:56:40.157Z,4.70
2022-08-08T19:59:12.555Z,4.30
2022-08-08T20:02:01.750Z,2.80
2022-08-08T20:04:45.673Z,2.73
2022-08-08T20:08:30.273Z,3.50
2022-08-08T20:10:14.755Z,4.67
2022-08-08T20:12:59.283Z,3.47
2022-08-08T20:16:00.499Z,3.77
2022-08-08T20:18:52.000Z,3.57
2022-08-08T20:21:26.360Z,2.97
2022-08-08T20:24:02.578Z,3.40
2022-08-08T20:26:35.258Z,3.50
2022-08-08T20:29:11.753Z,4.20
2022-08-08T20:32:07.243Z,4.33
2022-08-08T20:34:35.136Z,2.90
2022-08-08T20:37:12.299Z,2.70
2022-08-08T20:39:51.356Z,2.57
2022-08-08T20:42:29.243Z,4.77
2022-08-08T20:45:03.186Z,3.30
2022-08-08T20:47:36.652Z,3.77
2022-08-08T20:50:10.993Z,5.67
2022-08-08T20:52:41.168Z,5.07
2022-08-08T20:55:25.630Z,4.57
2022-08-08T20:57:57.955Z,4.80
2022-08-08T21:00:30.690Z,3.70
2022-08-08T21:03:02.108Z,3.00
2022-08-08T21:05:32.592Z,2.57
2022-08-08T21:08:37.305Z,2.60
2022-08-08T21:11:10.173Z,2.63
2022-08-08T21:13:43.137Z,2.33
2022-08-08T21:16:17.908Z,2.13
2022-08-08T21:18:59.637Z,2.67
2022-08-08T21:21:41.117Z,2.50
2022-08-08T21:24:25.557Z,2.77
2022-08-08T21:27:02.602Z,2.70
2022-08-08T21:30:03.926Z,2.40
2022-08-08T21:32:26.441Z,2.40
2022-08-08T21:36:13.558Z,2.40
2022-08-08T21:37:55.407Z,2.73
2022-08-08T21:40:31.472Z,2.43
2022-08-08T21:43:02.890Z,2.77
2022-08-08T21:48:00.862Z,2.90
2022-08-08T21:48:30.372Z,3.00
2022-08-08T21:51:13.516Z,2.73
2022-08-08T21:54:36.543Z,2.63
2022-08-08T21:56:42.091Z,2.83
2022-08-08T21:59:12.860Z,2.70
2022-08-08T22:01:51.946Z,3.20
2022-08-08T22:04:28.398Z,3.10
2022-08-08T22:06:57.708Z,3.07
2022-08-08T22:09:37.512Z,3.30
2022-08-08T22:12:14.962Z,2.67
2022-08-08T22:14:50.253Z,2.67
2022-08-08T22:17:21.953Z,3.00
2022-08-08T22:20:10.848Z,3.13
2022-08-08T22:22:42.208Z,2.93
2022-08-08T22:25:24.604Z,3.10
2022-08-08T22:28:04.625Z,2.80
2022-08-08T22:30:53.029Z,2.87
2022-08-08T22:34:13.041Z,3.17
2022-08-08T22:36:16.105Z,2.83
2022-08-08T22:38:52.444Z,2.93
2022-08-08T22:41:42.196Z,3.00
2022-08-08T22:44:12.848Z,2.40
2022-08-08T22:46:42.452Z,2.60
2022-08-08T22:49:19.996Z,2.80
2022-08-08T22:51:51.370Z,2.73
2022-08-08T22:54:30.241Z,2.83
2022-08-08T22:57:11.576Z,2.93
2022-08-08T22:59:59.648Z,2.57
2022-08-08T23:02:30.618Z,2.80
2022-08-08T23:05:02.166Z,2.93
2022-08-08T23:07:51.865Z,2.80
2022-08-08T23:10:28.999Z,2.90
2022-08-08T23:12:59.671Z,2.60
2022-08-08T23:16:41.229Z,2.90
2022-08-08T23:18:19.751Z,2.90
2022-08-08T23:20:54.957Z,3.03
2022-08-08T23:23:25.459Z,2.90
2022-08-08T23:25:54.491Z,2.97
2022-08-08T23:28:26.967Z,3.00
2022-08-08T23:30:55.954Z,2.77
2022-08-08T23:34:17.325Z,3.13
2022-08-08T23:36:14.130Z,2.80
2022-08-08T23:38:51.910Z,2.83
2022-08-08T23:41:24.657Z,2.63
2022-08-08T23:43:56.239Z,2.97
2022-08-08T23:49:08.351Z,2.90
2022-08-08T23:49:18.951Z,2.90
2022-08-08T23:52:04.318Z,2.53
2022-08-08T23:54:53.146Z,3.20
2022-08-08T23:57:39.367Z,2.97
